createdAt,value
2018-11-01T00:01:16.152Z,101021.40
2018-11-01T00:03:45.082Z,101016.26
2018-11-01T00:06:13.837Z,101007.69
2018-11-01T00:08:42.512Z,101007.69
2018-11-01T00:11:11.142Z,101007.27
2018-11-01T00:13:39.931Z,101003.83
2018-11-01T00:16:08.595Z,101002.08
2018-11-01T00:18:37.262Z,101006.39
2018-11-01T00:21:07.311Z,101005.94
2018-11-01T00:23:36.485Z,101011.95
2018-11-01T00:26:05.316Z,101008.08
2018-11-01T00:28:33.954Z,101004.61
2018-11-01T00:31:03.006Z,101012.73
2018-11-01T00:33:32.474Z,101015.32
2018-11-01T00:36:01.986Z,101014.42
2018-11-01T00:38:30.937Z,101015.25
2018-11-01T00:40:59.640Z,101012.69
2018-11-01T00:43:28.412Z,101010.98
2018-11-01T00:45:57.309Z,101002.84
2018-11-01T00:48:25.919Z,100995.09
2018-11-01T00:50:54.672Z,100992.52
2018-11-01T00:53:23.300Z,100993.34
2018-11-01T00:55:52.019Z,101001.92
2018-11-01T00:58:20.766Z,101001.50
2018-11-01T01:00:49.484Z,101006.63
2018-11-01T01:03:18.099Z,100996.34
2018-11-01T01:05:46.877Z,100996.37
2018-11-01T01:08:15.484Z,100993.34
2018-11-01T01:10:44.065Z,100992.05
2018-11-01T01:13:12.716Z,100996.73
2018-11-01T01:15:41.463Z,101001.44
2018-11-01T01:18:10.015Z,101008.70
2018-11-01T01:20:38.642Z,101009.13
2018-11-01T01:23:07.496Z,101010.42
2018-11-01T01:25:36.199Z,101011.70
2018-11-01T01:28:04.908Z,101011.30
2018-11-01T01:30:33.512Z,101010.42
2018-11-01T01:33:02.911Z,101001.00
2018-11-01T01:35:31.478Z,100995.45
2018-11-01T01:38:00.257Z,100988.61
2018-11-01T01:40:28.896Z,100987.72
2018-11-01T01:42:57.692Z,100990.73
2018-11-01T01:45:26.462Z,100982.98
2018-11-01T01:47:55.160Z,100982.09
2018-11-01T01:50:23.891Z,100972.70
2018-11-01T01:52:52.839Z,100969.73
2018-11-01T01:55:22.202Z,100967.14
2018-11-01T01:57:51.171Z,100958.98
2018-11-01T02:00:21.218Z,100955.09
2018-11-01T02:02:52.026Z,100948.70
2018-11-01T02:05:20.685Z,100951.27
2018-11-01T02:07:49.566Z,100940.09
2018-11-01T02:10:18.917Z,100947.37
2018-11-01T02:12:47.613Z,100938.78
2018-11-01T02:15:19.083Z,100937.94
2018-11-01T02:17:47.993Z,100937.95
2018-11-01T02:20:18.090Z,100931.06
2018-11-01T02:22:47.180Z,100924.20
2018-11-01T02:25:16.080Z,100922.53
2018-11-01T02:27:50.195Z,100928.09
2018-11-01T02:30:19.501Z,100926.80
2018-11-01T02:32:48.410Z,100926.80
2018-11-01T02:35:18.266Z,100930.22
2018-11-01T02:37:47.067Z,100932.77
2018-11-01T02:40:16.332Z,100934.05
2018-11-01T02:42:45.176Z,100939.61
2018-11-01T02:45:14.709Z,100937.49
2018-11-01T02:47:43.471Z,100938.75
2018-11-01T02:50:13.250Z,100933.16
2018-11-01T02:52:42.432Z,100927.62
2018-11-01T02:55:11.538Z,100930.98
2018-11-01T02:57:40.336Z,100929.25
2018-11-01T03:00:10.334Z,100921.96
2018-11-01T03:02:39.069Z,100919.80
2018-11-01T03:05:08.510Z,100920.22
2018-11-01T03:07:37.364Z,100919.80
2018-11-01T03:10:07.432Z,100919.75
2018-11-01T03:12:36.305Z,100915.88
2018-11-01T03:15:05.627Z,100921.41
2018-11-01T03:17:34.298Z,100924.77
2018-11-01T03:20:03.251Z,100923.91
2018-11-01T03:22:31.841Z,100920.07
2018-11-01T03:25:00.735Z,100914.44
2018-11-01T03:27:29.514Z,100910.55
2018-11-01T03:29:58.439Z,100907.99
2018-11-01T03:32:27.145Z,100900.72
2018-11-01T03:34:55.988Z,100898.98
2018-11-01T03:37:24.575Z,100895.56
2018-11-01T03:39:53.459Z,100894.31
2018-11-01T03:42:22.228Z,100886.58
2018-11-01T03:44:50.823Z,100878.94
2018-11-01T03:47:19.485Z,100881.88
2018-11-01T03:49:48.121Z,100882.31
2018-11-01T03:52:16.740Z,100877.59
2018-11-01T03:54:45.397Z,100875.87
2018-11-01T03:57:14.186Z,100871.14
2018-11-01T03:59:42.840Z,100874.98
2018-11-01T04:02:11.512Z,100871.56
2018-11-01T04:04:40.300Z,100875.36
2018-11-01T04:07:08.993Z,100871.08
2018-11-01T04:09:37.826Z,100871.03
2018-11-01T04:12:06.495Z,100869.34
2018-11-01T04:14:35.067Z,100873.19
2018-11-01T04:17:03.932Z,100873.13
2018-11-01T04:19:32.492Z,100877.41
2018-11-01T04:22:03.639Z,100876.14
2018-11-01T04:24:32.781Z,100875.25
2018-11-01T04:27:01.735Z,100881.23
2018-11-01T04:29:30.444Z,100879.06
2018-11-01T04:31:59.116Z,100877.78
2018-11-01T04:34:27.707Z,100875.67
2018-11-01T04:36:56.637Z,100876.95
2018-11-01T04:39:25.226Z,100875.23
2018-11-01T04:41:54.173Z,100872.64
2018-11-01T04:44:22.772Z,100870.87
2018-11-01T04:46:51.416Z,100851.16
2018-11-01T04:49:20.060Z,100850.81
2018-11-01T04:51:48.771Z,100853.39
2018-11-01T04:54:17.354Z,100847.88
2018-11-01T04:56:46.110Z,100836.33
2018-11-01T04:59:14.804Z,100834.27
2018-11-01T05:01:43.487Z,100824.86
2018-11-01T05:04:12.097Z,100809.90
2018-11-01T05:06:40.947Z,100809.86
2018-11-01T05:09:09.585Z,100804.24
2018-11-01T05:11:38.357Z,100801.69
2018-11-01T05:14:06.993Z,100808.08
2018-11-01T05:16:35.643Z,100796.23
2018-11-01T05:19:04.207Z,100797.12
2018-11-01T05:21:32.824Z,100790.29
2018-11-01T05:24:02.878Z,100793.71
2018-11-01T05:26:32.658Z,100793.27
2018-11-01T05:29:01.726Z,100784.70
2018-11-01T05:31:30.394Z,100779.98
2018-11-01T05:33:59.634Z,100787.66
2018-11-01T05:36:28.235Z,100787.65
2018-11-01T05:38:56.922Z,100793.20
2018-11-01T05:41:25.651Z,100785.92
2018-11-01T05:43:54.367Z,100789.75
2018-11-01T05:46:23.129Z,100799.17
2018-11-01T05:48:51.748Z,100804.69
2018-11-01T05:51:20.503Z,100807.67
2018-11-01T05:53:49.290Z,100805.84
2018-11-01T05:56:17.994Z,100804.05
2018-11-01T05:58:46.648Z,100788.30
2018-11-01T06:01:19.331Z,100783.19
2018-11-01T06:03:48.199Z,100780.65
2018-11-01T06:06:16.840Z,100780.70
2018-11-01T06:08:46.212Z,100798.70
2018-11-01T06:11:14.781Z,100806.38
2018-11-01T06:13:43.494Z,100825.17
2018-11-01T06:16:12.333Z,100835.64
2018-11-01T06:18:40.996Z,100827.40
2018-11-01T06:21:09.791Z,100813.17
2018-11-01T06:23:38.764Z,100797.38
2018-11-01T06:26:07.569Z,100802.47
2018-11-01T06:28:36.251Z,100796.94
2018-11-01T06:31:04.958Z,100794.03
2018-11-01T06:33:33.613Z,100782.58
2018-11-01T06:36:06.124Z,100785.97
2018-11-01T06:38:34.777Z,100776.98
2018-11-01T06:41:04.502Z,100761.17
2018-11-01T06:43:33.032Z,100775.69
2018-11-01T06:46:01.709Z,100781.61
2018-11-01T06:48:30.342Z,100789.31
2018-11-01T06:50:58.998Z,100793.16
2018-11-01T06:53:27.816Z,100785.87
2018-11-01T06:55:56.391Z,100791.74
2018-11-01T06:58:25.261Z,100790.07
2018-11-01T07:00:54.551Z,100786.67
2018-11-01T07:03:23.180Z,100779.06
2018-11-01T07:05:52.990Z,100775.24
2018-11-01T07:08:21.775Z,100777.47
2018-11-01T07:10:50.456Z,100759.55
2018-11-01T07:13:19.196Z,100762.14
2018-11-01T07:15:47.826Z,100770.20
2018-11-01T07:18:16.367Z,100774.44
2018-11-01T07:20:44.989Z,100765.87
2018-11-01T07:23:13.624Z,100747.08
2018-11-01T07:25:42.500Z,100750.55
2018-11-01T07:28:11.628Z,100748.87
2018-11-01T07:30:40.265Z,100746.78
2018-11-01T07:33:09.571Z,100739.11
2018-11-01T07:35:38.194Z,100741.67
2018-11-01T07:38:07.194Z,100746.38
2018-11-01T07:40:35.909Z,100745.57
2018-11-01T07:43:05.638Z,100756.78
2018-11-01T07:45:34.303Z,100751.29
2018-11-01T07:48:03.728Z,100752.55
2018-11-01T07:50:32.444Z,100763.27
2018-11-01T07:53:03.398Z,100756.80
2018-11-01T07:55:32.063Z,100754.27
2018-11-01T07:58:00.800Z,100753.43
2018-11-01T08:00:29.452Z,100750.91
2018-11-01T08:02:58.193Z,100746.25
2018-11-01T08:05:26.905Z,100733.53
2018-11-01T08:07:55.656Z,100732.28
2018-11-01T08:10:24.343Z,100736.59
2018-11-01T08:12:53.164Z,100732.72
2018-11-01T08:15:22.437Z,100725.44
2018-11-01T08:17:50.964Z,100720.80
2018-11-01T08:20:19.838Z,100713.16
2018-11-01T08:22:48.221Z,100707.67
2018-11-01T08:25:16.931Z,100704.69
2018-11-01T08:27:45.459Z,100705.15
2018-11-01T08:30:16.824Z,100709.48
2018-11-01T08:32:46.245Z,100703.10
2018-11-01T08:35:14.936Z,100712.13
2018-11-01T08:37:45.399Z,100699.69
2018-11-01T08:40:14.543Z,100707.84
2018-11-01T08:42:43.517Z,100707.45
2018-11-01T08:45:13.267Z,100695.89
2018-11-01T08:47:42.295Z,100693.35
2018-11-01T08:50:12.417Z,100692.52
2018-11-01T08:52:42.243Z,100699.80
2018-11-01T08:55:11.292Z,100699.81
2018-11-01T08:57:40.647Z,100694.27
2018-11-01T09:00:12.792Z,100693.85
2018-11-01T09:02:42.606Z,100690.02
2018-11-01T09:05:12.318Z,100697.28
2018-11-01T09:07:41.352Z,100697.70
2018-11-01T09:10:12.509Z,100692.16
2018-11-01T09:12:41.495Z,100691.73
2018-11-01T09:15:12.012Z,100696.42
2018-11-01T09:17:41.774Z,100699.44
2018-11-01T09:20:11.144Z,100698.59
2018-11-01T09:22:40.463Z,100694.71
2018-11-01T09:25:09.127Z,100698.16
2018-11-01T09:27:37.781Z,100701.14
2018-11-01T09:30:10.915Z,100697.72
2018-11-01T09:32:39.919Z,100685.33
2018-11-01T09:35:10.634Z,100684.45
2018-11-01T09:37:40.424Z,100679.77
2018-11-01T09:40:10.623Z,100679.77
2018-11-01T09:42:40.344Z,100675.91
2018-11-01T09:45:09.072Z,100660.06
2018-11-01T09:47:38.102Z,100653.66
2018-11-01T09:50:08.133Z,100657.91
2018-11-01T09:52:36.945Z,100660.02
2018-11-01T09:55:05.913Z,100655.72
2018-11-01T09:57:35.283Z,100652.73
2018-11-01T10:00:04.463Z,100650.53
2018-11-01T10:02:33.232Z,100653.52
2018-11-01T10:05:02.316Z,100655.62
2018-11-01T10:07:31.399Z,100659.45
2018-11-01T10:10:00.694Z,100660.69
2018-11-01T10:12:29.748Z,100658.58
2018-11-01T10:14:58.981Z,100656.43
2018-11-01T10:17:29.165Z,100650.41
2018-11-01T10:19:57.413Z,100649.14
2018-11-01T10:22:26.247Z,100630.23
2018-11-01T10:24:54.795Z,100632.77
2018-11-01T10:27:23.355Z,100632.74
2018-11-01T10:29:52.117Z,100633.16
2018-11-01T10:32:20.751Z,100627.56
2018-11-01T10:34:49.468Z,100623.25
2018-11-01T10:37:18.219Z,100619.37
2018-11-01T10:39:46.727Z,100618.03
2018-11-01T10:42:15.275Z,100625.32
2018-11-01T10:44:43.927Z,100615.89
2018-11-01T10:47:12.889Z,100604.77
2018-11-01T10:49:41.575Z,100610.34
2018-11-01T10:52:10.290Z,100614.60
2018-11-01T10:54:38.937Z,100623.61
2018-11-01T10:57:08.252Z,100614.17
2018-11-01T10:59:36.925Z,100612.94
2018-11-01T11:02:11.582Z,100612.91
2018-11-01T11:04:40.833Z,100613.31
2018-11-01T11:07:09.522Z,100605.59
2018-11-01T11:09:38.220Z,100601.31
2018-11-01T11:12:07.281Z,100605.55
2018-11-01T11:14:36.037Z,100606.00
2018-11-01T11:17:04.656Z,100602.58
2018-11-01T11:19:33.426Z,100601.26
2018-11-01T11:22:02.421Z,100605.92
2018-11-01T11:24:31.157Z,100593.05
2018-11-01T11:27:00.662Z,100593.45
2018-11-01T11:29:29.702Z,100583.98
2018-11-01T11:31:58.892Z,100573.70
2018-11-01T11:34:27.881Z,100569.84
2018-11-01T11:36:56.864Z,100565.52
2018-11-01T11:39:25.728Z,100563.34
2018-11-01T11:41:54.780Z,100564.23
2018-11-01T11:44:24.310Z,100559.88
2018-11-01T11:46:53.121Z,100554.30
2018-11-01T11:49:21.797Z,100557.76
2018-11-01T11:51:50.531Z,100556.87
2018-11-01T11:54:19.489Z,100562.02
2018-11-01T11:56:48.332Z,100558.16
2018-11-01T11:59:17.131Z,100553.91
2018-11-01T12:01:45.839Z,100552.58
2018-11-01T12:04:15.088Z,100553.01
2018-11-01T12:06:43.839Z,100555.16
2018-11-01T12:09:12.767Z,100552.16
2018-11-01T12:11:41.608Z,100553.44
2018-11-01T12:14:10.405Z,100546.57
2018-11-01T12:16:39.566Z,100540.57
2018-11-01T12:19:08.197Z,100543.14
2018-11-01T12:21:36.941Z,100533.59
2018-11-01T12:24:06.053Z,100533.91
2018-11-01T12:26:34.959Z,100530.44
2018-11-01T12:29:04.131Z,100512.77
2018-11-01T12:31:32.751Z,100503.36
2018-11-01T12:34:01.983Z,100502.06
2018-11-01T12:36:30.612Z,100508.80
2018-11-01T12:38:59.218Z,100483.82
2018-11-01T12:41:27.960Z,100482.91
2018-11-01T12:43:56.550Z,100467.70
2018-11-01T12:46:25.205Z,100467.59
2018-11-01T12:48:53.805Z,100471.36
2018-11-01T12:51:23.434Z,100456.70
2018-11-01T12:53:52.052Z,100457.03
2018-11-01T12:56:20.708Z,100458.27
2018-11-01T12:58:49.251Z,100464.22
2018-11-01T13:01:18.200Z,100472.28
2018-11-01T13:03:46.799Z,100469.71
2018-11-01T13:06:15.452Z,100458.27
2018-11-01T13:08:44.043Z,100439.89
2018-11-01T13:11:12.641Z,100431.05
2018-11-01T13:13:41.372Z,100439.53
2018-11-01T13:16:09.913Z,100450.26
2018-11-01T13:18:38.474Z,100450.64
2018-11-01T13:21:07.020Z,100450.64
2018-11-01T13:23:35.590Z,100455.04
2018-11-01T13:26:04.161Z,100460.72
2018-11-01T13:28:32.775Z,100470.66
2018-11-01T13:31:02.718Z,100459.92
2018-11-01T13:33:31.343Z,100465.59
2018-11-01T13:35:59.903Z,100452.39
2018-11-01T13:38:28.547Z,100471.70
2018-11-01T13:40:57.693Z,100477.72
2018-11-01T13:43:25.910Z,100470.03
2018-11-01T13:45:54.486Z,100473.05
2018-11-01T13:48:23.252Z,100471.33
2018-11-01T13:50:51.738Z,100478.63
2018-11-01T13:53:20.374Z,100484.20
2018-11-01T13:55:48.952Z,100478.20
2018-11-01T13:58:17.537Z,100490.17
2018-11-01T14:00:46.210Z,100480.73
2018-11-01T14:03:14.715Z,100482.92
2018-11-01T14:05:43.587Z,100477.42
2018-11-01T14:08:12.047Z,100473.99
2018-11-01T14:10:40.742Z,100462.54
2018-11-01T14:13:09.314Z,100469.32
2018-11-01T14:15:38.003Z,100461.98
2018-11-01T14:18:06.630Z,100469.23
2018-11-01T14:20:36.180Z,100473.89
2018-11-01T14:23:05.919Z,100476.01
2018-11-01T14:25:34.806Z,100471.32
2018-11-01T14:28:04.472Z,100490.22
2018-11-01T14:30:33.174Z,100493.69
2018-11-01T14:33:02.713Z,100476.23
2018-11-01T14:35:31.397Z,100490.86
2018-11-01T14:38:00.457Z,100467.27
2018-11-01T14:40:29.082Z,100452.25
2018-11-01T14:42:58.097Z,100443.28
2018-11-01T14:45:26.862Z,100444.69
2018-11-01T14:47:55.815Z,100451.55
2018-11-01T14:50:24.636Z,100440.84
2018-11-01T14:52:53.596Z,100426.72
2018-11-01T14:55:22.872Z,100404.02
2018-11-01T14:57:58.262Z,100400.17
2018-11-01T15:00:25.563Z,100407.54
2018-11-01T15:02:54.302Z,100410.12
2018-11-01T15:05:23.036Z,100408.53
2018-11-01T15:07:51.583Z,100424.74
2018-11-01T15:10:20.253Z,100422.56
2018-11-01T15:12:48.912Z,100428.05
2018-11-01T15:15:17.605Z,100434.10
2018-11-01T15:17:46.424Z,100440.19
2018-11-01T15:20:15.139Z,100444.91
2018-11-01T15:22:43.761Z,100451.34
2018-11-01T15:25:12.477Z,100454.81
2018-11-01T15:27:41.158Z,100452.66
2018-11-01T15:30:13.881Z,100449.70
2018-11-01T15:32:42.539Z,100443.28
2018-11-01T15:35:11.323Z,100442.41
2018-11-01T15:37:40.224Z,100444.56
2018-11-01T15:40:10.633Z,100445.80
2018-11-01T15:42:39.370Z,100446.20
2018-11-01T15:45:09.063Z,100453.91
2018-11-01T15:47:38.088Z,100446.20
2018-11-01T15:50:07.632Z,100444.52
2018-11-01T15:52:36.282Z,100448.34
2018-11-01T15:55:05.764Z,100447.48
2018-11-01T15:57:34.404Z,100444.00
2018-11-01T16:00:03.828Z,100433.28
2018-11-01T16:02:32.541Z,100429.84
2018-11-01T16:05:01.682Z,100445.30
2018-11-01T16:07:30.253Z,100437.58
2018-11-01T16:09:59.132Z,100436.33
2018-11-01T16:12:27.755Z,100433.76
2018-11-01T16:14:56.453Z,100425.23
2018-11-01T16:17:25.013Z,100422.69
2018-11-01T16:19:53.830Z,100411.58
2018-11-01T16:22:22.313Z,100404.34
2018-11-01T16:24:50.953Z,100409.95
2018-11-01T16:27:19.699Z,100413.37
2018-11-01T16:29:48.288Z,100415.05
2018-11-01T16:32:16.817Z,100425.81
2018-11-01T16:34:45.449Z,100422.45
2018-11-01T16:37:14.217Z,100420.39
2018-11-01T16:39:43.034Z,100431.58
2018-11-01T16:42:11.767Z,100426.89
2018-11-01T16:44:40.551Z,100444.01
2018-11-01T16:47:09.294Z,100440.61
2018-11-01T16:52:25.575Z,100450.47
2018-11-01T16:54:54.230Z,100452.19
2018-11-01T16:57:22.861Z,100446.22
2018-11-01T16:59:51.463Z,100448.36
2018-11-01T17:02:20.082Z,100443.22
2018-11-01T17:04:48.706Z,100425.68
2018-11-01T17:07:17.281Z,100425.68
2018-11-01T17:09:46.025Z,100441.97
2018-11-01T17:12:14.731Z,100442.40
2018-11-01T17:14:43.320Z,100449.65
2018-11-01T17:17:11.902Z,100458.19
2018-11-01T17:19:40.415Z,100470.16
2018-11-01T17:22:09.059Z,100475.27
2018-11-01T17:24:38.090Z,100482.95
2018-11-01T17:27:07.066Z,100497.50
2018-11-01T17:29:35.986Z,100499.64
2018-11-01T17:32:04.870Z,100492.78
2018-11-01T17:34:33.685Z,100507.75
2018-11-01T17:37:02.319Z,100512.47
2018-11-01T17:39:31.121Z,100520.16
2018-11-01T17:41:59.877Z,100518.01
2018-11-01T17:44:28.767Z,100525.30
2018-11-01T17:46:57.533Z,100534.30
2018-11-01T17:49:26.104Z,100530.02
2018-11-01T17:51:55.546Z,100532.16
2018-11-01T17:54:24.175Z,100532.59
2018-11-01T17:56:52.892Z,100524.44
2018-11-01T17:59:21.554Z,100498.72
2018-11-01T18:01:50.525Z,100494.46
2018-11-01T18:04:19.073Z,100496.21
2018-11-01T18:06:47.713Z,100490.23
2018-11-01T18:09:16.676Z,100491.98
2018-11-01T18:11:45.629Z,100506.99
2018-11-01T18:14:14.400Z,100518.17
2018-11-01T18:16:42.972Z,100530.60
2018-11-01T18:19:11.720Z,100531.03
2018-11-01T18:21:40.368Z,100533.60
2018-11-01T18:24:09.140Z,100557.55
2018-11-01T18:26:37.782Z,100558.38
2018-11-01T18:29:06.816Z,100558.84
2018-11-01T18:31:35.558Z,100562.70
2018-11-01T18:34:04.805Z,100565.70
2018-11-01T18:36:33.427Z,100566.59
2018-11-01T18:39:03.807Z,100567.05
2018-11-01T18:41:32.481Z,100566.64
2018-11-01T18:44:02.296Z,100578.22
2018-11-01T18:46:30.928Z,100589.39
2018-11-01T18:48:59.776Z,100589.44
2018-11-01T18:51:28.616Z,100595.08
2018-11-01T18:53:57.466Z,100593.86
2018-11-01T18:56:26.199Z,100594.73
2018-11-01T18:58:54.914Z,100601.61
2018-11-01T19:01:23.792Z,100602.95
2018-11-01T19:03:52.784Z,100604.68
2018-11-01T19:06:21.406Z,100619.28
2018-11-01T19:08:50.050Z,100618.02
2018-11-01T19:11:18.701Z,100605.61
2018-11-01T19:13:47.735Z,100601.79
2018-11-01T19:16:16.452Z,100599.63
2018-11-01T19:18:45.291Z,100601.33
2018-11-01T19:21:14.084Z,100606.02
2018-11-01T19:23:42.682Z,100606.89
2018-11-01T19:26:11.312Z,100612.90
2018-11-01T19:28:39.938Z,100620.21
2018-11-01T19:31:08.597Z,100618.06
2018-11-01T19:33:37.240Z,100612.50
2018-11-01T19:36:05.925Z,100616.36
2018-11-01T19:38:34.537Z,100616.77
2018-11-01T19:41:03.609Z,100621.52
2018-11-01T19:43:33.362Z,100634.80
2018-11-01T19:46:02.266Z,100635.24
2018-11-01T19:48:31.246Z,100640.37
2018-11-01T19:50:59.913Z,100643.39
2018-11-01T19:53:28.613Z,100642.96
2018-11-01T19:55:57.435Z,100640.84
2018-11-01T19:58:26.211Z,100642.13
2018-11-01T20:00:54.752Z,100651.55
2018-11-01T20:03:23.408Z,100654.93
2018-11-01T20:05:52.136Z,100652.82
2018-11-01T20:08:20.868Z,100655.36
2018-11-01T20:10:49.449Z,100652.79
2018-11-01T20:13:17.981Z,100656.65
2018-11-01T20:15:46.728Z,100659.64
2018-11-01T20:18:15.285Z,100667.35
2018-11-01T20:20:43.917Z,100663.50
2018-11-01T20:23:13.683Z,100668.65
2018-11-01T20:25:42.750Z,100668.63
2018-11-01T20:28:12.903Z,100675.47
2018-11-01T20:30:43.360Z,100685.31
2018-11-01T20:33:13.141Z,100689.61
2018-11-01T20:35:41.654Z,100689.59
2018-11-01T20:38:10.401Z,100692.59
2018-11-01T20:40:39.044Z,100698.16
2018-11-01T20:43:07.729Z,100693.85
2018-11-01T20:45:36.431Z,100695.16
2018-11-01T20:48:05.112Z,100692.56
2018-11-01T20:50:34.594Z,100693.87
2018-11-01T20:53:03.335Z,100713.95
2018-11-01T20:55:31.907Z,100713.09
2018-11-01T20:58:00.574Z,100707.55
2018-11-01T21:00:29.260Z,100702.83
2018-11-01T21:02:57.933Z,100709.26
2018-11-01T21:05:26.653Z,100716.09
2018-11-01T21:07:55.224Z,100713.10
2018-11-01T21:10:23.848Z,100716.11
2018-11-01T21:12:52.772Z,100713.53
2018-11-01T21:15:21.375Z,100719.08
2018-11-01T21:17:50.028Z,100727.21
2018-11-01T21:20:18.664Z,100730.61
2018-11-01T21:22:47.379Z,100730.62
2018-11-01T21:25:15.873Z,100728.04
2018-11-01T21:27:44.578Z,100730.60
2018-11-01T21:30:13.250Z,100727.60
2018-11-01T21:32:41.918Z,100719.06
2018-11-01T21:35:10.677Z,100726.31
2018-11-01T21:37:39.145Z,100729.75
2018-11-01T21:40:09.356Z,100715.23
2018-11-01T21:42:38.140Z,100716.06
2018-11-01T21:45:08.811Z,100720.78
2018-11-01T21:47:37.507Z,100727.20
2018-11-01T21:50:06.196Z,100733.61
2018-11-01T21:52:34.901Z,100733.61
2018-11-01T21:55:04.083Z,100729.36
2018-11-01T21:57:33.091Z,100725.93
2018-11-01T22:00:02.028Z,100731.05
2018-11-01T22:02:30.779Z,100726.36
2018-11-01T22:04:59.403Z,100731.50
2018-11-01T22:07:27.990Z,100729.80
2018-11-01T22:09:56.779Z,100733.20
2018-11-01T22:12:25.361Z,100742.59
2018-11-01T22:14:53.987Z,100740.87
2018-11-01T22:17:22.771Z,100743.43
2018-11-01T22:19:51.401Z,100748.16
2018-11-01T22:22:20.014Z,100752.84
2018-11-01T22:24:48.689Z,100750.72
2018-11-01T22:27:17.296Z,100750.70
2018-11-01T22:29:45.893Z,100754.55
2018-11-01T22:32:14.522Z,100758.42
2018-11-01T22:34:43.115Z,100755.45
2018-11-01T22:37:11.761Z,100748.61
2018-11-01T22:39:40.446Z,100771.69
2018-11-01T22:42:09.184Z,100772.13
2018-11-01T22:44:37.795Z,100775.99
2018-11-01T22:47:06.713Z,100781.12
2018-11-01T22:49:35.441Z,100775.57
2018-11-01T22:52:04.039Z,100762.30
2018-11-01T22:54:32.715Z,100772.16
2018-11-01T22:57:01.645Z,100762.75
2018-11-01T22:59:30.298Z,100773.44
2018-11-01T23:01:58.929Z,100746.93
2018-11-01T23:04:27.654Z,100748.20
2018-11-01T23:06:56.282Z,100755.03
2018-11-01T23:09:24.951Z,100760.13
2018-11-01T23:11:53.637Z,100763.13
2018-11-01T23:14:22.283Z,100775.07
2018-11-01T23:16:50.848Z,100785.73
2018-11-01T23:19:19.421Z,100791.27
2018-11-01T23:21:48.396Z,100793.85
2018-11-01T23:24:16.960Z,100783.13
2018-11-01T23:26:45.530Z,100786.56
2018-11-01T23:29:14.271Z,100779.31
2018-11-01T23:31:43.025Z,100774.19
2018-11-01T23:34:11.592Z,100777.19
2018-11-01T23:36:45.405Z,100781.04
2018-11-01T23:39:19.093Z,100785.31
2018-11-01T23:41:53.023Z,100776.75
2018-11-01T23:44:26.855Z,100768.22
2018-11-01T23:47:00.627Z,100774.63
2018-11-01T23:49:33.351Z,100770.34
2018-11-01T23:52:07.271Z,100768.22
2018-11-01T23:54:35.774Z,100761.41
2018-11-01T23:57:04.391Z,100765.67
2018-11-01T23:59:33.256Z,100763.15
